sensor_id;sensor_type;location;lat;lon;timestamp;P1;durP1;ratioP1;P2;durP2;ratioP2
58208;SDS011;44006;52.028;4.696;2024-02-14T00:02:13;39.45;;;29.45;;
58208;SDS011;44006;52.028;4.696;2024-02-14T00:04:38;42.25;;;30.35;;
58208;SDS011;44006;52.028;4.696;2024-02-14T00:07:05;42.25;;;31.20;;
58208;SDS011;44006;52.028;4.696;2024-02-14T00:09:30;41.58;;;31.15;;
58208;SDS011;44006;52.028;4.696;2024-02-14T00:11:56;44.88;;;31.55;;
58208;SDS011;44006;52.028;4.696;2024-02-14T00:14:21;46.10;;;32.83;;
58208;SDS011;44006;52.028;4.696;2024-02-14T00:16:46;46.35;;;32.22;;
58208;SDS011;44006;52.028;4.696;2024-02-14T00:19:12;49.10;;;33.50;;
58208;SDS011;44006;52.028;4.696;2024-02-14T00:21:37;43.25;;;32.78;;
58208;SDS011;44006;52.028;4.696;2024-02-14T00:24:03;41.15;;;31.13;;
58208;SDS011;44006;52.028;4.696;2024-02-14T00:26:33;45.60;;;32.38;;
58208;SDS011;44006;52.028;4.696;2024-02-14T00:28:59;52.33;;;34.50;;
58208;SDS011;44006;52.028;4.696;2024-02-14T00:31:24;49.70;;;34.50;;
58208;SDS011;44006;52.028;4.696;2024-02-14T00:33:50;50.17;;;34.55;;
58208;SDS011;44006;52.028;4.696;2024-02-14T00:36:17;50.85;;;33.92;;
58208;SDS011;44006;52.028;4.696;2024-02-14T00:38:42;50.47;;;34.90;;
58208;SDS011;44006;52.028;4.696;2024-02-14T00:41:10;53.50;;;34.92;;
58208;SDS011;44006;52.028;4.696;2024-02-14T00:43:36;49.97;;;33.95;;
58208;SDS011;44006;52.028;4.696;2024-02-14T00:46:02;50.92;;;35.50;;
58208;SDS011;44006;52.028;4.696;2024-02-14T00:48:28;51.70;;;35.05;;
58208;SDS011;44006;52.028;4.696;2024-02-14T00:50:54;52.33;;;37.17;;
58208;SDS011;44006;52.028;4.696;2024-02-14T00:53:19;51.08;;;36.08;;
58208;SDS011;44006;52.028;4.696;2024-02-14T00:55:44;54.60;;;36.08;;
58208;SDS011;44006;52.028;4.696;2024-02-14T00:58:10;51.75;;;36.50;;
58208;SDS011;44006;52.028;4.696;2024-02-14T01:00:35;53.22;;;36.65;;
58208;SDS011;44006;52.028;4.696;2024-02-14T01:03:00;57.42;;;37.90;;
58208;SDS011;44006;52.028;4.696;2024-02-14T01:05:25;58.22;;;38.50;;
58208;SDS011;44006;52.028;4.696;2024-02-14T01:07:52;58.15;;;38.95;;
58208;SDS011;44006;52.028;4.696;2024-02-14T01:10:21;52.17;;;37.42;;
58208;SDS011;44006;52.028;4.696;2024-02-14T01:12:46;57.55;;;38.40;;
58208;SDS011;44006;52.028;4.696;2024-02-14T01:15:11;52.88;;;37.47;;
58208;SDS011;44006;52.028;4.696;2024-02-14T01:17:37;57.83;;;38.30;;
58208;SDS011;44006;52.028;4.696;2024-02-14T01:20:06;57.28;;;37.53;;
58208;SDS011;44006;52.028;4.696;2024-02-14T01:22:33;60.13;;;37.17;;
58208;SDS011;44006;52.028;4.696;2024-02-14T01:24:59;59.80;;;38.60;;
58208;SDS011;44006;52.028;4.696;2024-02-14T01:27:24;58.05;;;37.40;;
58208;SDS011;44006;52.028;4.696;2024-02-14T01:29:54;51.13;;;37.13;;
58208;SDS011;44006;52.028;4.696;2024-02-14T01:32:23;54.83;;;37.05;;
58208;SDS011;44006;52.028;4.696;2024-02-14T01:34:48;56.15;;;36.80;;
58208;SDS011;44006;52.028;4.696;2024-02-14T01:37:14;53.55;;;37.33;;
58208;SDS011;44006;52.028;4.696;2024-02-14T01:39:39;57.83;;;38.47;;
58208;SDS011;44006;52.028;4.696;2024-02-14T01:42:04;56.72;;;37.47;;
58208;SDS011;44006;52.028;4.696;2024-02-14T01:44:32;57.10;;;38.15;;
58208;SDS011;44006;52.028;4.696;2024-02-14T01:46:57;55.15;;;38.95;;
58208;SDS011;44006;52.028;4.696;2024-02-14T01:49:23;58.35;;;38.10;;
58208;SDS011;44006;52.028;4.696;2024-02-14T01:51:49;60.13;;;37.97;;
58208;SDS011;44006;52.028;4.696;2024-02-14T01:54:16;59.08;;;39.28;;
58208;SDS011;44006;52.028;4.696;2024-02-14T01:56:42;59.13;;;39.72;;
58208;SDS011;44006;52.028;4.696;2024-02-14T01:59:09;56.83;;;38.60;;
58208;SDS011;44006;52.028;4.696;2024-02-14T02:01:35;60.70;;;37.80;;
58208;SDS011;44006;52.028;4.696;2024-02-14T02:04:00;56.85;;;36.30;;
58208;SDS011;44006;52.028;4.696;2024-02-14T02:06:26;51.20;;;34.33;;
58208;SDS011;44006;52.028;4.696;2024-02-14T02:08:53;52.33;;;31.45;;
58208;SDS011;44006;52.028;4.696;2024-02-14T02:11:18;45.70;;;31.15;;
58208;SDS011;44006;52.028;4.696;2024-02-14T02:13:44;49.28;;;32.67;;
58208;SDS011;44006;52.028;4.696;2024-02-14T02:16:09;44.45;;;30.60;;
58208;SDS011;44006;52.028;4.696;2024-02-14T02:18:35;41.50;;;29.10;;
58208;SDS011;44006;52.028;4.696;2024-02-14T02:21:00;44.08;;;29.50;;
58208;SDS011;44006;52.028;4.696;2024-02-14T02:23:33;43.63;;;28.48;;
58208;SDS011;44006;52.028;4.696;2024-02-14T02:25:58;40.88;;;27.77;;
58208;SDS011;44006;52.028;4.696;2024-02-14T02:28:24;45.85;;;27.50;;
58208;SDS011;44006;52.028;4.696;2024-02-14T02:30:49;39.10;;;26.88;;
58208;SDS011;44006;52.028;4.696;2024-02-14T02:33:15;38.30;;;25.98;;
58208;SDS011;44006;52.028;4.696;2024-02-14T02:35:41;40.13;;;26.08;;
58208;SDS011;44006;52.028;4.696;2024-02-14T02:38:07;38.60;;;23.92;;
58208;SDS011;44006;52.028;4.696;2024-02-14T02:40:32;40.05;;;26.00;;
58208;SDS011;44006;52.028;4.696;2024-02-14T02:42:58;35.97;;;24.52;;
58208;SDS011;44006;52.028;4.696;2024-02-14T02:45:24;35.13;;;23.85;;
58208;SDS011;44006;52.028;4.696;2024-02-14T02:47:49;39.75;;;25.33;;
58208;SDS011;44006;52.028;4.696;2024-02-14T02:50:17;39.40;;;25.60;;
58208;SDS011;44006;52.028;4.696;2024-02-14T02:52:46;44.95;;;27.65;;
58208;SDS011;44006;52.028;4.696;2024-02-14T02:55:14;47.42;;;29.33;;
58208;SDS011;44006;52.028;4.696;2024-02-14T02:57:42;49.50;;;29.93;;
58208;SDS011;44006;52.028;4.696;2024-02-14T03:00:09;48.83;;;31.13;;
58208;SDS011;44006;52.028;4.696;2024-02-14T03:02:35;50.47;;;30.92;;
58208;SDS011;44006;52.028;4.696;2024-02-14T03:05:03;49.63;;;30.95;;
58208;SDS011;44006;52.028;4.696;2024-02-14T03:07:33;59.53;;;32.50;;
58208;SDS011;44006;52.028;4.696;2024-02-14T03:09:58;67.90;;;36.67;;
58208;SDS011;44006;52.028;4.696;2024-02-14T03:12:25;67.10;;;36.50;;
58208;SDS011;44006;52.028;4.696;2024-02-14T03:14:53;62.38;;;36.33;;
58208;SDS011;44006;52.028;4.696;2024-02-14T03:17:18;68.68;;;37.40;;
58208;SDS011;44006;52.028;4.696;2024-02-14T03:19:50;70.10;;;39.20;;
58208;SDS011;44006;52.028;4.696;2024-02-14T03:22:18;65.50;;;37.55;;
58208;SDS011;44006;52.028;4.696;2024-02-14T03:24:44;70.60;;;39.53;;
58208;SDS011;44006;52.028;4.696;2024-02-14T03:27:11;60.88;;;38.15;;
58208;SDS011;44006;52.028;4.696;2024-02-14T03:29:37;73.32;;;40.45;;
58208;SDS011;44006;52.028;4.696;2024-02-14T03:32:03;74.25;;;39.50;;
58208;SDS011;44006;52.028;4.696;2024-02-14T03:34:29;69.90;;;39.28;;
58208;SDS011;44006;52.028;4.696;2024-02-14T03:36:55;73.28;;;40.30;;
58208;SDS011;44006;52.028;4.696;2024-02-14T03:39:20;76.30;;;39.88;;
58208;SDS011;44006;52.028;4.696;2024-02-14T03:41:53;74.53;;;39.97;;
58208;SDS011;44006;52.028;4.696;2024-02-14T03:44:19;77.53;;;40.95;;
58208;SDS011;44006;52.028;4.696;2024-02-14T03:46:45;78.68;;;40.80;;
58208;SDS011;44006;52.028;4.696;2024-02-14T03:49:12;74.22;;;40.42;;
58208;SDS011;44006;52.028;4.696;2024-02-14T03:51:37;77.20;;;42.13;;
58208;SDS011;44006;52.028;4.696;2024-02-14T03:54:03;77.47;;;40.97;;
58208;SDS011;44006;52.028;4.696;2024-02-14T03:56:29;70.35;;;41.50;;
58208;SDS011;44006;52.028;4.696;2024-02-14T03:58:55;76.88;;;41.38;;
58208;SDS011;44006;52.028;4.696;2024-02-14T04:01:21;77.43;;;40.60;;
58208;SDS011;44006;52.028;4.696;2024-02-14T04:03:49;75.53;;;40.05;;
58208;SDS011;44006;52.028;4.696;2024-02-14T04:06:15;77.00;;;38.85;;
58208;SDS011;44006;52.028;4.696;2024-02-14T04:08:40;74.38;;;39.85;;
58208;SDS011;44006;52.028;4.696;2024-02-14T04:11:06;77.82;;;39.65;;
58208;SDS011;44006;52.028;4.696;2024-02-14T04:13:31;73.43;;;38.67;;
58208;SDS011;44006;52.028;4.696;2024-02-14T04:15:56;74.80;;;39.65;;
58208;SDS011;44006;52.028;4.696;2024-02-14T04:18:21;76.45;;;37.55;;
58208;SDS011;44006;52.028;4.696;2024-02-14T04:20:47;72.88;;;37.97;;
58208;SDS011;44006;52.028;4.696;2024-02-14T04:23:13;74.55;;;37.88;;
58208;SDS011;44006;52.028;4.696;2024-02-14T04:25:38;75.25;;;39.20;;
58208;SDS011;44006;52.028;4.696;2024-02-14T04:28:04;78.95;;;40.85;;
58208;SDS011;44006;52.028;4.696;2024-02-14T04:30:29;79.32;;;42.22;;
58208;SDS011;44006;52.028;4.696;2024-02-14T04:32:55;88.13;;;41.63;;
58208;SDS011;44006;52.028;4.696;2024-02-14T04:35:21;84.05;;;44.20;;
58208;SDS011;44006;52.028;4.696;2024-02-14T04:37:46;78.22;;;39.70;;
58208;SDS011;44006;52.028;4.696;2024-02-14T04:40:13;82.65;;;42.72;;
58208;SDS011;44006;52.028;4.696;2024-02-14T04:42:38;85.97;;;43.15;;
58208;SDS011;44006;52.028;4.696;2024-02-14T04:45:04;89.60;;;43.53;;
58208;SDS011;44006;52.028;4.696;2024-02-14T04:47:30;84.97;;;42.55;;
58208;SDS011;44006;52.028;4.696;2024-02-14T04:49:55;81.82;;;42.72;;
58208;SDS011;44006;52.028;4.696;2024-02-14T04:52:21;87.55;;;43.72;;
58208;SDS011;44006;52.028;4.696;2024-02-14T04:54:46;98.15;;;44.90;;
58208;SDS011;44006;52.028;4.696;2024-02-14T04:57:11;89.47;;;44.63;;
58208;SDS011;44006;52.028;4.696;2024-02-14T04:59:37;88.63;;;44.65;;
58208;SDS011;44006;52.028;4.696;2024-02-14T05:02:02;94.78;;;45.00;;
58208;SDS011;44006;52.028;4.696;2024-02-14T05:04:28;83.75;;;44.55;;
58208;SDS011;44006;52.028;4.696;2024-02-14T05:06:54;89.40;;;42.85;;
58208;SDS011;44006;52.028;4.696;2024-02-14T05:09:19;80.05;;;40.88;;
58208;SDS011;44006;52.028;4.696;2024-02-14T05:11:45;78.10;;;39.72;;
58208;SDS011;44006;52.028;4.696;2024-02-14T05:14:11;75.03;;;40.50;;
58208;SDS011;44006;52.028;4.696;2024-02-14T05:16:37;76.45;;;40.83;;
58208;SDS011;44006;52.028;4.696;2024-02-14T05:19:02;81.45;;;41.20;;
58208;SDS011;44006;52.028;4.696;2024-02-14T05:21:27;71.00;;;39.30;;
58208;SDS011;44006;52.028;4.696;2024-02-14T05:23:54;76.32;;;39.53;;
58208;SDS011;44006;52.028;4.696;2024-02-14T05:26:19;74.15;;;38.75;;
58208;SDS011;44006;52.028;4.696;2024-02-14T05:28:44;71.60;;;38.58;;
58208;SDS011;44006;52.028;4.696;2024-02-14T05:31:10;64.93;;;36.65;;
58208;SDS011;44006;52.028;4.696;2024-02-14T05:33:35;62.60;;;35.17;;
58208;SDS011;44006;52.028;4.696;2024-02-14T05:36:00;58.05;;;35.80;;
58208;SDS011;44006;52.028;4.696;2024-02-14T05:38:26;59.95;;;32.58;;
58208;SDS011;44006;52.028;4.696;2024-02-14T05:40:52;53.47;;;31.88;;
58208;SDS011;44006;52.028;4.696;2024-02-14T05:43:19;48.53;;;30.20;;
58208;SDS011;44006;52.028;4.696;2024-02-14T05:45:45;49.50;;;30.17;;
58208;SDS011;44006;52.028;4.696;2024-02-14T05:48:11;57.38;;;31.63;;
58208;SDS011;44006;52.028;4.696;2024-02-14T05:50:36;63.17;;;33.28;;
58208;SDS011;44006;52.028;4.696;2024-02-14T05:53:01;68.13;;;35.88;;
58208;SDS011;44006;52.028;4.696;2024-02-14T05:55:27;68.40;;;36.42;;
58208;SDS011;44006;52.028;4.696;2024-02-14T05:57:52;72.25;;;36.83;;
58208;SDS011;44006;52.028;4.696;2024-02-14T06:00:19;82.47;;;38.30;;
58208;SDS011;44006;52.028;4.696;2024-02-14T06:02:45;79.75;;;38.03;;
58208;SDS011;44006;52.028;4.696;2024-02-14T06:05:12;79.93;;;37.95;;
58208;SDS011;44006;52.028;4.696;2024-02-14T06:07:37;82.20;;;38.10;;
58208;SDS011;44006;52.028;4.696;2024-02-14T06:10:03;85.45;;;38.50;;
58208;SDS011;44006;52.028;4.696;2024-02-14T06:12:28;84.15;;;40.47;;
58208;SDS011;44006;52.028;4.696;2024-02-14T06:14:54;80.38;;;38.42;;
58208;SDS011;44006;52.028;4.696;2024-02-14T06:17:21;75.07;;;37.90;;
58208;SDS011;44006;52.028;4.696;2024-02-14T06:19:46;86.80;;;39.33;;
58208;SDS011;44006;52.028;4.696;2024-02-14T06:22:12;76.70;;;39.70;;
58208;SDS011;44006;52.028;4.696;2024-02-14T06:24:37;90.50;;;39.83;;
58208;SDS011;44006;52.028;4.696;2024-02-14T06:27:03;92.70;;;41.67;;
58208;SDS011;44006;52.028;4.696;2024-02-14T06:29:28;84.97;;;42.90;;
58208;SDS011;44006;52.028;4.696;2024-02-14T06:31:54;92.20;;;42.10;;
58208;SDS011;44006;52.028;4.696;2024-02-14T06:34:19;83.57;;;40.90;;
58208;SDS011;44006;52.028;4.696;2024-02-14T06:36:46;90.57;;;42.75;;
58208;SDS011;44006;52.028;4.696;2024-02-14T06:39:11;81.03;;;41.25;;
58208;SDS011;44006;52.028;4.696;2024-02-14T06:41:37;100.40;;;41.45;;
58208;SDS011;44006;52.028;4.696;2024-02-14T06:44:02;90.80;;;41.00;;
58208;SDS011;44006;52.028;4.696;2024-02-14T06:46:27;83.25;;;40.42;;
58208;SDS011;44006;52.028;4.696;2024-02-14T06:48:52;83.88;;;39.55;;
58208;SDS011;44006;52.028;4.696;2024-02-14T06:51:19;78.65;;;39.58;;
58208;SDS011;44006;52.028;4.696;2024-02-14T06:53:45;81.72;;;40.25;;
58208;SDS011;44006;52.028;4.696;2024-02-14T06:56:10;82.38;;;39.63;;
58208;SDS011;44006;52.028;4.696;2024-02-14T06:58:36;85.80;;;39.75;;
58208;SDS011;44006;52.028;4.696;2024-02-14T07:01:02;87.82;;;39.28;;
58208;SDS011;44006;52.028;4.696;2024-02-14T07:03:29;85.90;;;40.45;;
58208;SDS011;44006;52.028;4.696;2024-02-14T07:05:54;83.93;;;38.40;;
58208;SDS011;44006;52.028;4.696;2024-02-14T07:08:19;81.22;;;39.15;;
58208;SDS011;44006;52.028;4.696;2024-02-14T07:10:45;76.20;;;38.72;;
58208;SDS011;44006;52.028;4.696;2024-02-14T07:13:10;73.10;;;37.08;;
58208;SDS011;44006;52.028;4.696;2024-02-14T07:15:35;76.25;;;36.05;;
58208;SDS011;44006;52.028;4.696;2024-02-14T07:18:00;73.82;;;34.78;;
58208;SDS011;44006;52.028;4.696;2024-02-14T07:20:26;64.70;;;33.57;;
58208;SDS011;44006;52.028;4.696;2024-02-14T07:22:51;62.65;;;32.40;;
58208;SDS011;44006;52.028;4.696;2024-02-14T07:25:18;60.28;;;31.85;;
58208;SDS011;44006;52.028;4.696;2024-02-14T07:27:43;57.42;;;30.77;;
58208;SDS011;44006;52.028;4.696;2024-02-14T07:30:11;56.13;;;29.38;;
58208;SDS011;44006;52.028;4.696;2024-02-14T07:32:36;54.65;;;31.02;;
58208;SDS011;44006;52.028;4.696;2024-02-14T07:35:02;52.72;;;29.00;;
58208;SDS011;44006;52.028;4.696;2024-02-14T07:37:27;49.55;;;29.30;;
58208;SDS011;44006;52.028;4.696;2024-02-14T07:39:53;55.63;;;29.55;;
58208;SDS011;44006;52.028;4.696;2024-02-14T07:42:18;56.00;;;29.50;;
58208;SDS011;44006;52.028;4.696;2024-02-14T07:44:43;60.20;;;30.93;;
58208;SDS011;44006;52.028;4.696;2024-02-14T07:47:08;55.87;;;31.57;;
58208;SDS011;44006;52.028;4.696;2024-02-14T07:49:33;57.90;;;30.83;;
58208;SDS011;44006;52.028;4.696;2024-02-14T07:51:59;61.50;;;31.67;;
58208;SDS011;44006;52.028;4.696;2024-02-14T07:54:25;55.85;;;31.40;;
58208;SDS011;44006;52.028;4.696;2024-02-14T07:56:51;58.38;;;31.30;;
58208;SDS011;44006;52.028;4.696;2024-02-14T07:59:17;52.58;;;29.92;;
58208;SDS011;44006;52.028;4.696;2024-02-14T08:01:42;54.70;;;28.63;;
58208;SDS011;44006;52.028;4.696;2024-02-14T08:04:09;54.20;;;28.83;;
58208;SDS011;44006;52.028;4.696;2024-02-14T08:06:35;52.35;;;29.45;;
58208;SDS011;44006;52.028;4.696;2024-02-14T08:09:00;42.35;;;26.50;;
58208;SDS011;44006;52.028;4.696;2024-02-14T08:11:27;47.72;;;27.35;;
58208;SDS011;44006;52.028;4.696;2024-02-14T08:13:54;49.40;;;27.08;;
58208;SDS011;44006;52.028;4.696;2024-02-14T08:16:19;47.67;;;26.33;;
58208;SDS011;44006;52.028;4.696;2024-02-14T08:18:44;46.97;;;25.98;;
58208;SDS011;44006;52.028;4.696;2024-02-14T08:21:10;45.50;;;25.85;;
58208;SDS011;44006;52.028;4.696;2024-02-14T08:23:36;45.30;;;25.35;;
58208;SDS011;44006;52.028;4.696;2024-02-14T08:26:04;41.08;;;23.67;;
58208;SDS011;44006;52.028;4.696;2024-02-14T08:28:35;37.63;;;23.88;;
58208;SDS011;44006;52.028;4.696;2024-02-14T08:31:01;35.97;;;21.95;;
58208;SDS011;44006;52.028;4.696;2024-02-14T08:33:26;37.60;;;21.67;;
58208;SDS011;44006;52.028;4.696;2024-02-14T08:35:52;32.97;;;20.80;;
58208;SDS011;44006;52.028;4.696;2024-02-14T08:38:22;33.28;;;21.25;;
58208;SDS011;44006;52.028;4.696;2024-02-14T08:40:48;34.83;;;20.52;;
58208;SDS011;44006;52.028;4.696;2024-02-14T08:43:13;33.83;;;20.83;;
58208;SDS011;44006;52.028;4.696;2024-02-14T08:45:38;30.73;;;19.85;;
58208;SDS011;44006;52.028;4.696;2024-02-14T08:48:04;32.40;;;20.43;;
58208;SDS011;44006;52.028;4.696;2024-02-14T08:50:31;30.75;;;21.55;;
58208;SDS011;44006;52.028;4.696;2024-02-14T08:52:56;36.47;;;23.27;;
58208;SDS011;44006;52.028;4.696;2024-02-14T08:55:21;36.20;;;22.25;;
58208;SDS011;44006;52.028;4.696;2024-02-14T08:57:47;38.65;;;22.20;;
58208;SDS011;44006;52.028;4.696;2024-02-14T09:00:12;42.35;;;24.63;;
58208;SDS011;44006;52.028;4.696;2024-02-14T09:02:39;44.38;;;25.35;;
58208;SDS011;44006;52.028;4.696;2024-02-14T09:05:05;43.65;;;24.35;;
58208;SDS011;44006;52.028;4.696;2024-02-14T09:07:31;43.35;;;25.20;;
58208;SDS011;44006;52.028;4.696;2024-02-14T09:09:58;46.20;;;28.23;;
58208;SDS011;44006;52.028;4.696;2024-02-14T09:12:24;51.47;;;27.52;;
58208;SDS011;44006;52.028;4.696;2024-02-14T09:14:49;48.30;;;27.77;;
58208;SDS011;44006;52.028;4.696;2024-02-14T09:17:14;47.13;;;27.57;;
58208;SDS011;44006;52.028;4.696;2024-02-14T09:19:40;49.83;;;26.63;;
58208;SDS011;44006;52.028;4.696;2024-02-14T09:22:05;50.13;;;26.55;;
58208;SDS011;44006;52.028;4.696;2024-02-14T09:24:31;47.25;;;25.80;;
58208;SDS011;44006;52.028;4.696;2024-02-14T09:26:56;47.20;;;25.75;;
58208;SDS011;44006;52.028;4.696;2024-02-14T09:29:22;42.20;;;24.95;;
58208;SDS011;44006;52.028;4.696;2024-02-14T09:31:49;38.00;;;23.92;;
58208;SDS011;44006;52.028;4.696;2024-02-14T09:34:16;34.35;;;22.75;;
58208;SDS011;44006;52.028;4.696;2024-02-14T09:36:43;39.75;;;22.35;;
58208;SDS011;44006;52.028;4.696;2024-02-14T09:39:08;40.80;;;21.80;;
58208;SDS011;44006;52.028;4.696;2024-02-14T09:41:37;34.25;;;21.08;;
58208;SDS011;44006;52.028;4.696;2024-02-14T09:44:06;33.75;;;20.83;;
58208;SDS011;44006;52.028;4.696;2024-02-14T09:46:32;35.58;;;20.75;;
58208;SDS011;44006;52.028;4.696;2024-02-14T09:49:00;31.05;;;19.77;;
58208;SDS011;44006;52.028;4.696;2024-02-14T09:51:26;32.53;;;19.98;;
58208;SDS011;44006;52.028;4.696;2024-02-14T09:53:54;30.33;;;19.63;;
58208;SDS011;44006;52.028;4.696;2024-02-14T09:56:23;32.47;;;20.02;;
58208;SDS011;44006;52.028;4.696;2024-02-14T09:58:51;36.70;;;20.95;;
58208;SDS011;44006;52.028;4.696;2024-02-14T10:01:21;37.28;;;20.05;;
58208;SDS011;44006;52.028;4.696;2024-02-14T10:03:49;33.38;;;19.70;;
58208;SDS011;44006;52.028;4.696;2024-02-14T10:06:17;35.42;;;19.92;;
58208;SDS011;44006;52.028;4.696;2024-02-14T10:08:42;34.80;;;19.55;;
58208;SDS011;44006;52.028;4.696;2024-02-14T10:11:08;35.08;;;20.55;;
58208;SDS011;44006;52.028;4.696;2024-02-14T10:13:33;31.90;;;18.83;;
58208;SDS011;44006;52.028;4.696;2024-02-14T10:15:59;29.95;;;18.90;;
58208;SDS011;44006;52.028;4.696;2024-02-14T10:18:25;33.72;;;19.48;;
58208;SDS011;44006;52.028;4.696;2024-02-14T10:20:52;30.73;;;18.20;;
58208;SDS011;44006;52.028;4.696;2024-02-14T10:23:17;30.55;;;18.27;;
58208;SDS011;44006;52.028;4.696;2024-02-14T10:25:43;27.83;;;17.08;;
58208;SDS011;44006;52.028;4.696;2024-02-14T10:28:08;25.10;;;16.13;;
58208;SDS011;44006;52.028;4.696;2024-02-14T10:30:34;28.30;;;16.98;;
58208;SDS011;44006;52.028;4.696;2024-02-14T10:33:02;26.50;;;16.40;;
58208;SDS011;44006;52.028;4.696;2024-02-14T10:35:28;29.55;;;16.10;;
58208;SDS011;44006;52.028;4.696;2024-02-14T10:37:55;25.27;;;17.02;;
58208;SDS011;44006;52.028;4.696;2024-02-14T10:40:26;25.75;;;15.93;;
58208;SDS011;44006;52.028;4.696;2024-02-14T10:42:52;23.60;;;16.02;;
58208;SDS011;44006;52.028;4.696;2024-02-14T10:45:19;22.25;;;15.65;;
58208;SDS011;44006;52.028;4.696;2024-02-14T10:47:45;23.80;;;15.02;;
58208;SDS011;44006;52.028;4.696;2024-02-14T10:50:13;22.15;;;15.25;;
58208;SDS011;44006;52.028;4.696;2024-02-14T10:52:40;26.55;;;16.98;;
58208;SDS011;44006;52.028;4.696;2024-02-14T10:55:05;26.60;;;15.70;;
58208;SDS011;44006;52.028;4.696;2024-02-14T10:57:31;31.23;;;17.33;;
58208;SDS011;44006;52.028;4.696;2024-02-14T11:00:01;28.92;;;17.17;;
58208;SDS011;44006;52.028;4.696;2024-02-14T11:02:27;31.83;;;18.95;;
58208;SDS011;44006;52.028;4.696;2024-02-14T11:04:55;33.92;;;19.40;;
58208;SDS011;44006;52.028;4.696;2024-02-14T11:10:06;35.47;;;20.55;;
58208;SDS011;44006;52.028;4.696;2024-02-14T11:12:34;32.80;;;20.77;;
58208;SDS011;44006;52.028;4.696;2024-02-14T11:15:01;36.13;;;21.48;;
58208;SDS011;44006;52.028;4.696;2024-02-14T11:17:29;35.70;;;21.42;;
58208;SDS011;44006;52.028;4.696;2024-02-14T11:19:54;34.45;;;22.20;;
58208;SDS011;44006;52.028;4.696;2024-02-14T11:22:21;38.47;;;21.80;;
58208;SDS011;44006;52.028;4.696;2024-02-14T11:24:47;37.15;;;23.48;;
58208;SDS011;44006;52.028;4.696;2024-02-14T11:27:13;36.20;;;23.30;;
58208;SDS011;44006;52.028;4.696;2024-02-14T11:29:38;40.60;;;24.45;;
58208;SDS011;44006;52.028;4.696;2024-02-14T11:32:05;41.00;;;25.30;;
58208;SDS011;44006;52.028;4.696;2024-02-14T11:34:33;42.67;;;26.55;;
58208;SDS011;44006;52.028;4.696;2024-02-14T11:36:58;42.13;;;25.27;;
58208;SDS011;44006;52.028;4.696;2024-02-14T11:39:24;38.88;;;24.52;;
58208;SDS011;44006;52.028;4.696;2024-02-14T11:41:50;34.63;;;22.75;;
58208;SDS011;44006;52.028;4.696;2024-02-14T11:44:15;32.28;;;21.58;;
58208;SDS011;44006;52.028;4.696;2024-02-14T11:46:40;37.55;;;23.02;;
58208;SDS011;44006;52.028;4.696;2024-02-14T11:49:07;34.70;;;23.23;;
58208;SDS011;44006;52.028;4.696;2024-02-14T11:51:33;35.20;;;24.88;;
58208;SDS011;44006;52.028;4.696;2024-02-14T11:53:58;35.90;;;24.05;;
58208;SDS011;44006;52.028;4.696;2024-02-14T11:56:31;38.55;;;25.02;;
58208;SDS011;44006;52.028;4.696;2024-02-14T11:59:00;34.63;;;23.55;;
58208;SDS011;44006;52.028;4.696;2024-02-14T12:01:27;37.38;;;23.77;;
58208;SDS011;44006;52.028;4.696;2024-02-14T12:03:53;33.65;;;23.02;;
58208;SDS011;44006;52.028;4.696;2024-02-14T12:06:18;31.75;;;22.25;;
58208;SDS011;44006;52.028;4.696;2024-02-14T12:08:45;29.40;;;22.13;;
58208;SDS011;44006;52.028;4.696;2024-02-14T12:11:10;31.73;;;21.75;;
58208;SDS011;44006;52.028;4.696;2024-02-14T12:13:37;29.98;;;19.85;;
58208;SDS011;44006;52.028;4.696;2024-02-14T12:16:03;27.10;;;19.85;;
58208;SDS011;44006;52.028;4.696;2024-02-14T12:18:33;31.75;;;20.38;;
58208;SDS011;44006;52.028;4.696;2024-02-14T12:24:02;27.15;;;19.45;;
58208;SDS011;44006;52.028;4.696;2024-02-14T12:26:36;31.17;;;20.25;;
58208;SDS011;44006;52.028;4.696;2024-02-14T12:31:38;30.70;;;20.50;;
58208;SDS011;44006;52.028;4.696;2024-02-14T12:39:38;27.33;;;18.80;;
58208;SDS011;44006;52.028;4.696;2024-02-14T12:42:03;27.63;;;18.52;;
58208;SDS011;44006;52.028;4.696;2024-02-14T12:44:30;26.27;;;17.83;;
58208;SDS011;44006;52.028;4.696;2024-02-14T12:46:55;24.00;;;17.55;;
58208;SDS011;44006;52.028;4.696;2024-02-14T12:49:20;27.92;;;19.30;;
58208;SDS011;44006;52.028;4.696;2024-02-14T12:51:46;26.08;;;17.73;;
58208;SDS011;44006;52.028;4.696;2024-02-14T12:54:11;25.33;;;16.17;;
58208;SDS011;44006;52.028;4.696;2024-02-14T12:56:39;28.15;;;17.17;;
58208;SDS011;44006;52.028;4.696;2024-02-14T12:59:04;23.67;;;16.98;;
58208;SDS011;44006;52.028;4.696;2024-02-14T13:01:32;23.83;;;15.75;;
58208;SDS011;44006;52.028;4.696;2024-02-14T13:03:57;24.02;;;15.77;;
58208;SDS011;44006;52.028;4.696;2024-02-14T13:06:22;23.90;;;15.82;;
58208;SDS011;44006;52.028;4.696;2024-02-14T13:08:48;23.77;;;15.02;;
58208;SDS011;44006;52.028;4.696;2024-02-14T13:11:13;23.98;;;14.82;;
58208;SDS011;44006;52.028;4.696;2024-02-14T13:13:40;22.77;;;14.63;;
58208;SDS011;44006;52.028;4.696;2024-02-14T13:16:07;22.38;;;14.93;;
58208;SDS011;44006;52.028;4.696;2024-02-14T13:18:32;25.58;;;15.48;;
58208;SDS011;44006;52.028;4.696;2024-02-14T13:20:59;27.02;;;15.85;;
58208;SDS011;44006;52.028;4.696;2024-02-14T13:23:25;27.98;;;16.77;;
58208;SDS011;44006;52.028;4.696;2024-02-14T13:25:50;29.13;;;17.38;;
58208;SDS011;44006;52.028;4.696;2024-02-14T13:28:15;33.70;;;17.73;;
58208;SDS011;44006;52.028;4.696;2024-02-14T13:30:43;32.05;;;17.85;;
58208;SDS011;44006;52.028;4.696;2024-02-14T13:33:08;34.55;;;17.88;;
58208;SDS011;44006;52.028;4.696;2024-02-14T13:35:36;30.05;;;17.05;;
58208;SDS011;44006;52.028;4.696;2024-02-14T13:38:05;28.45;;;17.40;;
58208;SDS011;44006;52.028;4.696;2024-02-14T13:40:30;29.23;;;15.88;;
58208;SDS011;44006;52.028;4.696;2024-02-14T13:42:56;27.52;;;16.35;;
58208;SDS011;44006;52.028;4.696;2024-02-14T13:45:21;29.10;;;15.50;;
58208;SDS011;44006;52.028;4.696;2024-02-14T13:47:48;26.17;;;15.25;;
58208;SDS011;44006;52.028;4.696;2024-02-14T13:50:13;26.25;;;14.73;;
58208;SDS011;44006;52.028;4.696;2024-02-14T13:52:38;26.75;;;14.77;;
58208;SDS011;44006;52.028;4.696;2024-02-14T13:55:04;25.63;;;14.00;;
58208;SDS011;44006;52.028;4.696;2024-02-14T13:57:30;22.02;;;13.85;;
58208;SDS011;44006;52.028;4.696;2024-02-14T13:59:55;25.52;;;14.07;;
58208;SDS011;44006;52.028;4.696;2024-02-14T14:02:21;20.95;;;13.77;;
58208;SDS011;44006;52.028;4.696;2024-02-14T14:04:47;21.70;;;12.40;;
58208;SDS011;44006;52.028;4.696;2024-02-14T14:07:14;18.13;;;11.27;;
58208;SDS011;44006;52.028;4.696;2024-02-14T14:09:40;16.95;;;10.65;;
58208;SDS011;44006;52.028;4.696;2024-02-14T14:12:06;20.92;;;11.85;;
58208;SDS011;44006;52.028;4.696;2024-02-14T14:14:32;19.42;;;12.27;;
58208;SDS011;44006;52.028;4.696;2024-02-14T14:16:57;21.38;;;12.18;;
58208;SDS011;44006;52.028;4.696;2024-02-14T14:19:22;27.63;;;15.95;;
58208;SDS011;44006;52.028;4.696;2024-02-14T14:21:48;26.52;;;17.70;;
58208;SDS011;44006;52.028;4.696;2024-02-14T14:24:13;26.17;;;16.35;;
58208;SDS011;44006;52.028;4.696;2024-02-14T14:26:38;23.27;;;15.40;;
58208;SDS011;44006;52.028;4.696;2024-02-14T14:29:03;23.97;;;14.40;;